createdAt,value
2018-11-25T00:01:19.101Z,1.70
2018-11-25T00:03:49.840Z,2.52
2018-11-25T00:06:20.519Z,1.90
2018-11-25T00:08:51.279Z,1.70
2018-11-25T00:11:23.382Z,1.67
2018-11-25T00:13:54.070Z,1.60
2018-11-25T00:16:24.702Z,1.67
2018-11-25T00:18:55.305Z,1.50
2018-11-25T00:21:26.007Z,2.72
2018-11-25T00:23:57.043Z,1.80
2018-11-25T00:26:27.696Z,2.00
2018-11-25T00:28:58.447Z,1.67
2018-11-25T00:31:29.087Z,2.37
2018-11-25T00:33:59.729Z,2.22
2018-11-25T00:36:30.413Z,2.02
2018-11-25T00:39:01.076Z,2.27
2018-11-25T00:41:31.951Z,2.42
2018-11-25T00:44:03.997Z,2.98
2018-11-25T00:46:34.575Z,2.45
2018-11-25T00:49:09.246Z,2.30
2018-11-25T00:51:40.097Z,3.02
2018-11-25T00:54:10.873Z,3.10
2018-11-25T00:56:41.481Z,2.50
2018-11-25T00:59:12.528Z,2.70
2018-11-25T01:01:43.607Z,2.12
2018-11-25T01:04:14.314Z,2.52
2018-11-25T01:06:45.079Z,2.20
2018-11-25T01:09:15.729Z,2.42
2018-11-25T01:11:46.782Z,3.52
2018-11-25T01:14:17.436Z,3.77
2018-11-25T01:16:48.050Z,4.75
2018-11-25T01:19:18.686Z,5.00
2018-11-25T01:21:49.293Z,3.22
2018-11-25T01:24:20.442Z,3.60
2018-11-25T01:26:51.075Z,2.15
2018-11-25T01:29:21.700Z,2.60
2018-11-25T01:31:52.357Z,2.80
2018-11-25T01:34:24.616Z,3.50
2018-11-25T01:36:55.195Z,3.83
2018-11-25T01:39:25.826Z,2.52
2018-11-25T01:41:56.476Z,2.47
2018-11-25T01:44:27.168Z,2.80
2018-11-25T01:46:57.756Z,2.83
2018-11-25T01:49:28.438Z,3.00
2018-11-25T01:51:59.124Z,3.50
2018-11-25T01:54:30.661Z,3.42
2018-11-25T01:57:05.130Z,3.12
2018-11-25T01:59:35.808Z,2.77
2018-11-25T02:02:07.939Z,3.05
2018-11-25T02:04:38.808Z,4.25
2018-11-25T02:07:09.600Z,3.75
2018-11-25T02:09:40.335Z,3.92
2018-11-25T02:12:10.995Z,3.65
2018-11-25T02:14:41.702Z,3.12
2018-11-25T02:17:12.377Z,3.12
2018-11-25T02:19:43.007Z,3.20
2018-11-25T02:22:13.641Z,3.30
2018-11-25T02:24:44.332Z,3.75
2018-11-25T02:27:14.965Z,3.10
2018-11-25T02:29:45.678Z,2.70
2018-11-25T02:32:16.293Z,3.37
2018-11-25T02:34:46.998Z,3.55
2018-11-25T02:37:17.691Z,3.47
2018-11-25T02:39:48.355Z,4.25
2018-11-25T02:42:19.416Z,3.77
2018-11-25T02:44:50.107Z,3.80
2018-11-25T02:47:20.682Z,3.60
2018-11-25T02:49:51.338Z,3.85
2018-11-25T02:52:21.960Z,4.85
2018-11-25T02:54:53.218Z,3.90
2018-11-25T02:57:24.929Z,4.15
2018-11-25T02:59:55.817Z,3.92
2018-11-25T03:02:26.505Z,3.45
2018-11-25T03:04:57.131Z,3.83
2018-11-25T03:07:27.844Z,3.45
2018-11-25T03:09:58.494Z,3.12
2018-11-25T03:12:29.307Z,3.37
2018-11-25T03:14:59.902Z,3.60
2018-11-25T03:17:32.133Z,2.90
2018-11-25T03:20:07.798Z,3.58
2018-11-25T03:22:38.771Z,3.80
2018-11-25T03:25:15.199Z,3.35
2018-11-25T03:27:46.141Z,3.50
2018-11-25T03:30:24.462Z,4.05
2018-11-25T03:32:56.517Z,3.40
2018-11-25T03:35:27.784Z,3.20
2018-11-25T03:37:58.413Z,3.45
2018-11-25T03:40:29.066Z,3.47
2018-11-25T03:42:59.770Z,3.92
2018-11-25T03:45:30.426Z,3.62
2018-11-25T03:48:01.099Z,4.30
2018-11-25T03:50:34.935Z,3.55
2018-11-25T03:53:05.945Z,3.20
2018-11-25T03:55:36.583Z,3.77
2018-11-25T03:58:08.262Z,4.10
2018-11-25T04:00:38.931Z,2.90
2018-11-25T04:03:09.549Z,2.98
2018-11-25T04:05:40.287Z,2.60
2018-11-25T04:08:10.909Z,2.60
2018-11-25T04:10:41.608Z,2.70
2018-11-25T04:13:12.252Z,2.75
2018-11-25T04:15:42.917Z,2.98
2018-11-25T04:18:13.549Z,2.80
2018-11-25T04:20:44.221Z,2.95
2018-11-25T04:23:14.885Z,2.80
2018-11-25T04:25:45.515Z,2.30
2018-11-25T04:28:16.335Z,3.10
2018-11-25T04:30:46.939Z,2.60
2018-11-25T04:33:18.038Z,3.17
2018-11-25T04:35:48.815Z,3.25
2018-11-25T04:38:19.423Z,3.05
2018-11-25T04:40:50.069Z,2.58
2018-11-25T04:43:25.769Z,2.87
2018-11-25T04:46:04.379Z,2.87
2018-11-25T04:48:36.171Z,3.50
2018-11-25T04:51:07.318Z,2.57
2018-11-25T04:53:37.975Z,3.60
2018-11-25T04:56:08.629Z,3.65
2018-11-25T04:58:39.282Z,3.57
2018-11-25T05:01:10.001Z,3.17
2018-11-25T05:03:40.630Z,2.90
2018-11-25T05:06:11.724Z,3.52
2018-11-25T05:08:42.325Z,3.30
2018-11-25T05:11:13.663Z,3.30
2018-11-25T05:13:44.261Z,3.10
2018-11-25T05:16:15.094Z,3.40
2018-11-25T05:18:45.725Z,3.15
2018-11-25T05:21:16.481Z,2.62
2018-11-25T05:23:47.725Z,2.50
2018-11-25T05:26:18.374Z,2.37
2018-11-25T05:28:49.509Z,2.42
2018-11-25T05:31:20.229Z,2.47
2018-11-25T05:33:50.933Z,2.90
2018-11-25T05:36:22.202Z,2.80
2018-11-25T05:38:52.841Z,2.52
2018-11-25T05:41:23.482Z,2.12
2018-11-25T05:43:54.452Z,2.27
2018-11-25T05:46:25.145Z,2.15
2018-11-25T05:48:55.915Z,2.90
2018-11-25T05:51:27.246Z,2.50
2018-11-25T05:53:58.372Z,1.90
2018-11-25T05:56:29.106Z,2.12
2018-11-25T05:58:59.785Z,2.40
2018-11-25T06:01:30.382Z,2.37
2018-11-25T06:04:01.047Z,1.90
2018-11-25T06:06:31.784Z,2.43
2018-11-25T06:09:03.595Z,2.00
2018-11-25T06:11:34.238Z,2.12
2018-11-25T06:14:05.169Z,3.10
2018-11-25T06:16:35.860Z,2.83
2018-11-25T06:19:06.590Z,2.58
2018-11-25T06:21:37.289Z,2.58
2018-11-25T06:24:08.143Z,2.33
2018-11-25T06:26:38.781Z,3.00
2018-11-25T06:29:09.426Z,3.30
2018-11-25T06:31:40.018Z,3.17
2018-11-25T06:34:10.693Z,3.67
2018-11-25T06:36:41.302Z,4.20
2018-11-25T06:39:12.153Z,4.72
2018-11-25T06:41:42.821Z,4.50
2018-11-25T06:44:13.506Z,5.13
2018-11-25T06:46:44.133Z,4.60
2018-11-25T06:49:15.101Z,4.20
2018-11-25T06:51:45.791Z,3.30
2018-11-25T06:54:16.627Z,3.70
2018-11-25T06:56:47.632Z,3.42
2018-11-25T06:59:18.224Z,3.70
2018-11-25T07:01:48.841Z,3.37
2018-11-25T07:04:19.513Z,3.13
2018-11-25T07:06:50.159Z,3.00
2018-11-25T07:09:20.802Z,3.17
2018-11-25T07:11:52.610Z,3.08
2018-11-25T07:14:23.235Z,3.30
2018-11-25T07:16:54.892Z,3.62
2018-11-25T07:19:31.953Z,2.77
2018-11-25T07:22:05.018Z,2.83
2018-11-25T07:24:35.660Z,3.17
2018-11-25T07:27:06.923Z,2.83
2018-11-25T07:29:38.392Z,3.00
2018-11-25T07:32:10.323Z,3.22
2018-11-25T07:34:40.934Z,3.60
2018-11-25T07:37:11.599Z,4.30
2018-11-25T07:39:42.334Z,3.10
2018-11-25T07:42:12.966Z,3.67
2018-11-25T07:44:43.698Z,3.90
2018-11-25T07:47:14.526Z,3.27
2018-11-25T07:49:45.550Z,3.47
2018-11-25T07:52:16.125Z,2.98
2018-11-25T07:54:46.803Z,2.87
2018-11-25T07:57:17.434Z,3.47
2018-11-25T07:59:48.167Z,5.60
2018-11-25T08:02:18.865Z,11.10
2018-11-25T08:04:49.544Z,4.55
2018-11-25T08:07:21.358Z,3.90
2018-11-25T08:09:51.991Z,3.63
2018-11-25T08:12:22.642Z,3.70
2018-11-25T08:14:54.281Z,3.60
2018-11-25T08:17:25.014Z,4.30
2018-11-25T08:19:55.643Z,4.58
2018-11-25T08:22:26.399Z,3.35
2018-11-25T08:24:57.052Z,3.52
2018-11-25T08:27:27.692Z,3.62
2018-11-25T08:29:58.414Z,3.77
2018-11-25T08:32:29.202Z,3.17
2018-11-25T08:35:00.117Z,3.25
2018-11-25T08:37:32.791Z,3.22
2018-11-25T08:40:05.084Z,2.92
2018-11-25T08:42:35.721Z,3.30
2018-11-25T08:45:08.865Z,2.92
2018-11-25T08:47:39.559Z,3.15
2018-11-25T08:50:11.513Z,3.42
2018-11-25T08:52:42.590Z,3.47
2018-11-25T08:55:14.455Z,3.10
2018-11-25T08:57:45.407Z,3.42
2018-11-25T09:00:18.560Z,2.87
2018-11-25T09:02:49.908Z,2.95
2018-11-25T09:05:20.503Z,3.17
2018-11-25T09:07:51.070Z,3.30
2018-11-25T09:10:28.080Z,2.75
2018-11-25T09:12:59.269Z,2.40
2018-11-25T09:15:31.024Z,2.83
2018-11-25T09:18:03.389Z,3.33
2018-11-25T09:20:34.177Z,2.42
2018-11-25T09:23:05.397Z,3.10
2018-11-25T09:25:36.569Z,3.27
2018-11-25T09:28:07.229Z,4.12
2018-11-25T09:30:37.841Z,4.83
2018-11-25T09:33:08.669Z,4.22
2018-11-25T09:35:39.297Z,3.72
2018-11-25T09:38:09.975Z,3.42
2018-11-25T09:40:40.609Z,2.90
2018-11-25T09:43:11.322Z,2.50
2018-11-25T09:45:42.026Z,2.22
2018-11-25T09:48:12.653Z,2.15
2018-11-25T09:50:43.346Z,2.47
2018-11-25T09:53:14.029Z,2.00
2018-11-25T09:55:44.662Z,1.98
2018-11-25T09:58:15.953Z,1.60
2018-11-25T10:00:46.694Z,1.62
2018-11-25T10:03:17.363Z,1.50
2018-11-25T10:05:49.271Z,1.47
2018-11-25T10:08:20.022Z,1.67
2018-11-25T10:10:52.776Z,1.67
2018-11-25T10:13:21.546Z,2.00
2018-11-25T10:15:52.269Z,1.60
2018-11-25T10:18:24.524Z,2.00
2018-11-25T10:20:55.214Z,1.70
2018-11-25T10:23:25.873Z,1.80
2018-11-25T10:25:57.161Z,1.95
2018-11-25T10:29:50.641Z,1.92
2018-11-25T10:32:21.327Z,1.98
2018-11-25T10:34:51.951Z,1.67
2018-11-25T10:37:22.578Z,1.52
2018-11-25T10:39:53.232Z,1.47
2018-11-25T10:42:23.882Z,1.60
2018-11-25T10:44:54.621Z,1.55
2018-11-25T10:47:25.422Z,1.85
2018-11-25T10:50:05.390Z,1.65
2018-11-25T10:52:36.083Z,1.82
2018-11-25T10:55:11.209Z,1.75
2018-11-25T10:57:42.414Z,1.22
2018-11-25T11:00:19.720Z,1.50
2018-11-25T11:02:54.428Z,1.90
2018-11-25T11:05:30.886Z,1.67
2018-11-25T11:08:06.060Z,2.10
2018-11-25T11:10:36.744Z,2.22
2018-11-25T11:13:08.452Z,2.12
2018-11-25T11:15:39.116Z,2.20
2018-11-25T11:18:09.761Z,2.37
2018-11-25T11:20:40.408Z,1.80
2018-11-25T11:23:11.085Z,1.80
2018-11-25T11:25:41.810Z,1.52
2018-11-25T11:28:12.894Z,1.70
2018-11-25T11:30:43.519Z,1.80
2018-11-25T11:33:14.606Z,1.80
2018-11-25T11:35:45.229Z,1.62
2018-11-25T11:38:21.162Z,1.82
2018-11-25T11:41:07.910Z,1.40
2018-11-25T11:43:50.429Z,1.82
2018-11-25T11:46:37.933Z,1.90
2018-11-25T11:49:21.117Z,1.77
2018-11-25T11:52:02.808Z,1.87
2018-11-25T11:54:47.011Z,1.82
2018-11-25T11:57:27.365Z,1.95
2018-11-25T12:00:11.508Z,2.37
2018-11-25T12:02:53.355Z,3.85
2018-11-25T12:05:25.222Z,2.33
2018-11-25T12:07:55.850Z,4.12
2018-11-25T12:10:26.528Z,2.77
2018-11-25T12:12:57.673Z,2.50
2018-11-25T12:15:30.597Z,3.47
2018-11-25T12:18:00.413Z,2.40
2018-11-25T12:20:33.338Z,2.65
2018-11-25T12:23:08.117Z,2.30
2018-11-25T12:25:38.696Z,2.42
2018-11-25T12:28:09.328Z,2.40
2018-11-25T12:30:39.988Z,2.30
2018-11-25T12:33:10.649Z,2.40
2018-11-25T12:35:41.939Z,1.80
2018-11-25T12:38:12.621Z,1.87
2018-11-25T12:40:43.246Z,1.50
2018-11-25T12:43:13.886Z,1.57
2018-11-25T12:45:45.399Z,2.22
2018-11-25T12:48:16.458Z,2.20
2018-11-25T12:50:47.091Z,2.00
2018-11-25T12:53:17.730Z,1.70
2018-11-25T12:55:48.474Z,1.98
2018-11-25T12:58:19.323Z,2.47
2018-11-25T13:00:50.495Z,2.00
2018-11-25T13:03:21.263Z,2.20
2018-11-25T13:05:51.905Z,2.27
2018-11-25T13:08:22.853Z,2.00
2018-11-25T13:10:54.222Z,2.35
2018-11-25T13:13:24.907Z,2.45
2018-11-25T13:15:55.483Z,2.25
2018-11-25T13:18:26.224Z,2.20
2018-11-25T13:20:56.857Z,1.90
2018-11-25T13:23:27.344Z,1.80
2018-11-25T13:25:58.014Z,1.80
2018-11-25T13:28:28.870Z,1.90
2018-11-25T13:30:59.942Z,2.20
2018-11-25T13:33:32.495Z,1.70
2018-11-25T13:36:04.680Z,1.77
2018-11-25T13:38:36.269Z,2.08
2018-11-25T13:41:07.845Z,2.05
2018-11-25T13:43:38.563Z,2.08
2018-11-25T13:46:09.210Z,1.82
2018-11-25T13:48:39.814Z,1.65
2018-11-25T13:51:10.516Z,1.65
2018-11-25T13:53:43.467Z,1.80
2018-11-25T13:56:14.207Z,1.67
2018-11-25T13:58:44.847Z,2.02
2018-11-25T14:01:15.795Z,1.75
2018-11-25T14:03:46.610Z,1.85
2018-11-25T14:06:18.514Z,1.67
2018-11-25T14:08:52.597Z,2.55
2018-11-25T14:11:23.413Z,2.35
2018-11-25T14:13:56.965Z,2.45
2018-11-25T14:16:27.698Z,2.85
2018-11-25T14:18:58.329Z,1.95
2018-11-25T14:21:29.006Z,1.45
2018-11-25T14:23:59.694Z,1.80
2018-11-25T14:26:34.939Z,3.95
2018-11-25T14:29:05.768Z,2.30
2018-11-25T14:31:36.550Z,2.85
2018-11-25T14:34:08.848Z,3.58
2018-11-25T14:36:39.609Z,1.72
2018-11-25T14:39:13.473Z,1.57
2018-11-25T14:41:44.229Z,1.22
2018-11-25T14:44:15.609Z,1.60
2018-11-25T14:46:46.235Z,1.62
2018-11-25T14:49:17.009Z,1.72
2018-11-25T14:51:47.660Z,1.30
2018-11-25T14:54:18.358Z,1.72
2018-11-25T14:56:49.161Z,1.57
2018-11-25T14:59:19.800Z,1.60
2018-11-25T15:01:50.527Z,1.80
2018-11-25T15:04:21.162Z,2.00
2018-11-25T15:06:52.585Z,1.77
2018-11-25T15:09:23.318Z,1.45
2018-11-25T15:11:53.913Z,1.42
2018-11-25T15:14:24.668Z,1.50
2018-11-25T15:16:55.753Z,1.62
2018-11-25T15:19:26.296Z,2.08
2018-11-25T15:21:56.971Z,2.20
2018-11-25T15:24:28.704Z,2.25
2018-11-25T15:26:59.406Z,2.00
2018-11-25T15:29:30.098Z,2.40
2018-11-25T15:32:00.889Z,2.00
2018-11-25T15:34:33.381Z,2.75
2018-11-25T15:37:08.376Z,2.60
2018-11-25T15:39:39.111Z,4.92
2018-11-25T15:42:09.778Z,7.95
2018-11-25T15:44:40.474Z,9.83
2018-11-25T15:47:11.109Z,7.75
2018-11-25T15:49:41.776Z,3.60
2018-11-25T15:52:12.476Z,3.92
2018-11-25T15:54:43.774Z,3.70
2018-11-25T15:57:14.441Z,3.67
2018-11-25T15:59:45.184Z,3.58
2018-11-25T16:02:15.849Z,2.67
2018-11-25T16:04:46.596Z,3.33
2018-11-25T16:07:17.279Z,3.00
2018-11-25T16:09:47.962Z,4.08
2018-11-25T16:12:18.589Z,3.40
2018-11-25T16:14:49.246Z,2.62
2018-11-25T16:17:19.843Z,3.47
2018-11-25T16:19:50.473Z,4.80
2018-11-25T16:22:21.486Z,5.97
2018-11-25T16:24:52.326Z,4.78
2018-11-25T16:27:23.184Z,3.90
2018-11-25T16:29:54.034Z,3.90
2018-11-25T16:32:24.858Z,3.77
2018-11-25T16:34:55.639Z,10.05
2018-11-25T16:37:27.230Z,12.28
2018-11-25T16:39:58.985Z,7.97
2018-11-25T16:42:29.637Z,6.83
2018-11-25T16:45:00.346Z,5.50
2018-11-25T16:47:37.494Z,3.35
2018-11-25T16:50:10.151Z,3.08
2018-11-25T16:52:40.820Z,2.70
2018-11-25T16:55:13.221Z,3.00
2018-11-25T16:57:44.828Z,2.50
2018-11-25T17:00:18.497Z,5.37
2018-11-25T17:02:49.183Z,3.30
2018-11-25T17:05:22.302Z,4.35
2018-11-25T17:07:57.222Z,5.17
2018-11-25T17:10:28.243Z,5.78
2018-11-25T17:12:59.100Z,5.80
2018-11-25T17:15:30.167Z,6.12
2018-11-25T17:18:01.046Z,6.40
2018-11-25T17:20:33.732Z,6.60
2018-11-25T17:23:08.901Z,5.37
2018-11-25T17:25:39.936Z,8.43
2018-11-25T17:28:12.535Z,19.15
2018-11-25T17:30:43.550Z,20.60
2018-11-25T17:33:14.204Z,37.85
2018-11-25T17:35:45.004Z,18.42
2018-11-25T17:38:15.791Z,17.05
2018-11-25T17:40:46.569Z,11.90
2018-11-25T17:43:20.923Z,12.23
2018-11-25T17:45:51.966Z,14.70
2018-11-25T17:48:22.668Z,27.85
2018-11-25T17:50:53.685Z,15.75
2018-11-25T17:53:24.323Z,16.32
2018-11-25T17:55:55.118Z,10.20
2018-11-25T17:58:25.836Z,20.27
2018-11-25T18:01:03.416Z,11.53
2018-11-25T18:03:35.524Z,12.28
2018-11-25T18:06:06.532Z,13.03
2018-11-25T18:08:40.334Z,11.88
2018-11-25T18:11:11.250Z,14.70
2018-11-25T18:13:42.519Z,17.85
2018-11-25T18:16:13.698Z,13.05
2018-11-25T18:18:58.977Z,14.47
2018-11-25T18:21:29.822Z,10.50
2018-11-25T18:24:05.242Z,13.55
2018-11-25T18:26:36.007Z,20.37
2018-11-25T18:29:07.213Z,13.40
2018-11-25T18:31:37.906Z,12.47
2018-11-25T18:34:08.697Z,10.93
2018-11-25T18:36:39.593Z,10.37
2018-11-25T18:39:16.932Z,10.08
2018-11-25T18:41:47.815Z,16.15
2018-11-25T18:44:18.696Z,12.03
2018-11-25T18:46:49.758Z,11.65
2018-11-25T18:49:20.727Z,8.58
2018-11-25T18:51:52.411Z,9.50
2018-11-25T18:54:23.279Z,10.50
2018-11-25T18:56:54.274Z,12.85
2018-11-25T18:59:27.495Z,10.30
2018-11-25T19:02:05.023Z,9.60
2018-11-25T19:04:35.848Z,11.83
2018-11-25T19:07:09.899Z,11.43
2018-11-25T19:09:40.745Z,11.33
2018-11-25T19:12:11.815Z,14.68
2018-11-25T19:14:43.509Z,18.45
2018-11-25T19:17:14.361Z,12.55
2018-11-25T19:19:45.155Z,14.03
2018-11-25T19:22:16.277Z,13.45
2018-11-25T19:25:03.911Z,11.33
2018-11-25T19:27:34.810Z,26.02
2018-11-25T19:30:10.922Z,21.00
2018-11-25T19:32:41.711Z,16.67
2018-11-25T19:35:13.401Z,16.25
2018-11-25T19:37:45.124Z,13.35
2018-11-25T19:40:23.596Z,13.62
2018-11-25T19:42:55.379Z,8.13
2018-11-25T19:45:28.089Z,7.83
2018-11-25T19:48:03.249Z,5.58
2018-11-25T19:50:35.733Z,5.40
2018-11-25T19:53:09.743Z,4.47
2018-11-25T19:55:42.200Z,5.45
2018-11-25T19:58:13.020Z,6.60
2018-11-25T20:00:43.699Z,5.50
2018-11-25T20:06:21.283Z,6.25
2018-11-25T20:08:52.363Z,6.58
2018-11-25T20:11:23.096Z,7.30
2018-11-25T20:13:53.873Z,7.60
2018-11-25T20:16:29.621Z,6.95
2018-11-25T20:19:00.358Z,8.23
2018-11-25T20:21:39.628Z,7.15
2018-11-25T20:24:10.448Z,8.48
2018-11-25T20:26:45.156Z,7.65
2018-11-25T20:29:15.903Z,6.80
2018-11-25T20:31:46.721Z,7.17
2018-11-25T20:34:17.377Z,8.03
2018-11-25T20:36:48.345Z,6.35
2018-11-25T20:39:23.939Z,5.20
2018-11-25T20:41:54.846Z,7.17
2018-11-25T20:44:26.366Z,6.47
2018-11-25T20:47:03.448Z,6.83
2018-11-25T20:49:35.661Z,6.30
2018-11-25T20:52:13.472Z,6.47
2018-11-25T20:54:44.294Z,8.15
2018-11-25T20:57:14.991Z,7.17
2018-11-25T20:59:45.668Z,5.35
2018-11-25T21:02:20.474Z,5.10
2018-11-25T21:04:47.166Z,4.92
2018-11-25T21:07:18.004Z,5.65
2018-11-25T21:09:48.673Z,4.85
2018-11-25T21:12:19.771Z,4.40
2018-11-25T21:14:50.413Z,4.97
2018-11-25T21:17:21.368Z,5.65
2018-11-25T21:19:52.158Z,4.17
2018-11-25T21:22:23.019Z,4.92
2018-11-25T21:24:54.472Z,4.07
2018-11-25T21:27:25.164Z,3.70
2018-11-25T21:29:55.869Z,3.55
2018-11-25T21:32:26.629Z,4.92
2018-11-25T21:34:57.287Z,4.42
2018-11-25T21:37:28.066Z,5.40
2018-11-25T21:39:59.390Z,2.70
2018-11-25T21:42:30.108Z,3.30
2018-11-25T21:45:00.774Z,3.40
2018-11-25T21:47:32.742Z,3.55
2018-11-25T21:50:04.831Z,3.25
2018-11-25T21:52:36.090Z,3.25
2018-11-25T21:55:08.584Z,4.00
2018-11-25T21:57:39.809Z,4.00
2018-11-25T22:00:14.828Z,5.25
2018-11-25T22:02:46.472Z,4.58
2018-11-25T22:05:17.469Z,4.55
2018-11-25T22:07:49.549Z,4.12
2018-11-25T22:10:21.219Z,4.87
2018-11-25T22:12:51.860Z,4.35
2018-11-25T22:15:23.371Z,6.10
2018-11-25T22:17:54.101Z,5.65
2018-11-25T22:20:24.836Z,11.15
2018-11-25T22:22:57.696Z,15.68
2018-11-25T22:25:28.358Z,5.40
2018-11-25T22:27:59.114Z,4.67
2018-11-25T22:32:22.201Z,4.30
2018-11-25T22:34:52.920Z,3.90
2018-11-25T22:37:23.567Z,5.28
2018-11-25T22:39:54.256Z,4.55
2018-11-25T22:42:24.972Z,4.00
2018-11-25T22:44:56.594Z,5.45
2018-11-25T22:47:27.281Z,5.08
2018-11-25T22:49:57.972Z,5.55
2018-11-25T22:52:28.897Z,20.62
2018-11-25T22:54:59.680Z,7.58
2018-11-25T22:57:31.183Z,5.70
2018-11-25T23:00:06.722Z,5.60
2018-11-25T23:02:37.419Z,5.87
2018-11-25T23:05:18.761Z,4.97
2018-11-25T23:07:49.758Z,5.50
2018-11-25T23:10:20.573Z,5.15
2018-11-25T23:12:51.305Z,5.35
2018-11-25T23:15:22.442Z,6.65
2018-11-25T23:17:53.132Z,5.40
2018-11-25T23:20:23.821Z,5.25
2018-11-25T23:22:54.497Z,6.47
2018-11-25T23:25:25.167Z,4.50
2018-11-25T23:27:56.300Z,7.20
2018-11-25T23:30:27.233Z,4.80
2018-11-25T23:32:58.763Z,5.47
2018-11-25T23:35:30.960Z,3.77
2018-11-25T23:38:05.243Z,6.30
2018-11-25T23:40:36.404Z,5.20
2018-11-25T23:43:07.744Z,4.97
2018-11-25T23:45:38.503Z,4.78
2018-11-25T23:48:09.210Z,4.78
2018-11-25T23:50:39.982Z,4.28
2018-11-25T23:53:10.744Z,6.50
2018-11-25T23:55:41.626Z,4.40
2018-11-25T23:58:12.567Z,3.98
